sensor_id;sensor_type;location;lat;lon;timestamp;pressure;altitude;pressure_sealevel;temperature;humidity
11710;BME280;5911;51.036;6.972;2022-12-07T00:01:06;100878.22;;;6.82;100.00
11710;BME280;5911;51.036;6.972;2022-12-07T00:03:34;100871.66;;;6.75;100.00
11710;BME280;5911;51.036;6.972;2022-12-07T00:06:03;100876.72;;;6.78;100.00
11710;BME280;5911;51.036;6.972;2022-12-07T00:08:32;100874.84;;;6.80;100.00
11710;BME280;5911;51.036;6.972;2022-12-07T00:11:01;100875.97;;;6.76;100.00
11710;BME280;5911;51.036;6.972;2022-12-07T00:13:30;100881.97;;;6.78;100.00
11710;BME280;5911;51.036;6.972;2022-12-07T00:16:00;100881.78;;;6.81;100.00
11710;BME280;5911;51.036;6.972;2022-12-07T00:18:30;100860.81;;;6.81;100.00
11710;BME280;5911;51.036;6.972;2022-12-07T00:20:59;100856.59;;;6.79;100.00
11710;BME280;5911;51.036;6.972;2022-12-07T00:23:28;100858.09;;;6.83;100.00
11710;BME280;5911;51.036;6.972;2022-12-07T00:26:02;100854.25;;;6.74;100.00
11710;BME280;5911;51.036;6.972;2022-12-07T00:28:30;100868.50;;;6.84;100.00
11710;BME280;5911;51.036;6.972;2022-12-07T00:31:00;100862.22;;;6.87;100.00
11710;BME280;5911;51.036;6.972;2022-12-07T00:33:29;100830.13;;;6.69;100.00
11710;BME280;5911;51.036;6.972;2022-12-07T00:35:58;100835.56;;;6.66;100.00
11710;BME280;5911;51.036;6.972;2022-12-07T00:38:28;100859.13;;;6.80;100.00
11710;BME280;5911;51.036;6.972;2022-12-07T00:40:56;100857.81;;;6.87;100.00
11710;BME280;5911;51.036;6.972;2022-12-07T00:43:24;100854.25;;;6.88;100.00
11710;BME280;5911;51.036;6.972;2022-12-07T00:45:52;100859.59;;;6.87;100.00
11710;BME280;5911;51.036;6.972;2022-12-07T00:48:21;100845.75;;;6.85;100.00
11710;BME280;5911;51.036;6.972;2022-12-07T00:50:51;100850.78;;;6.88;100.00
11710;BME280;5911;51.036;6.972;2022-12-07T00:53:19;100851.63;;;6.88;100.00
11710;BME280;5911;51.036;6.972;2022-12-07T00:55:46;100852.47;;;6.89;100.00
11710;BME280;5911;51.036;6.972;2022-12-07T00:58:15;100835.34;;;6.83;100.00
11710;BME280;5911;51.036;6.972;2022-12-07T01:00:43;100852.47;;;6.89;100.00
11710;BME280;5911;51.036;6.972;2022-12-07T01:03:13;100845.00;;;6.83;100.00
11710;BME280;5911;51.036;6.972;2022-12-07T01:05:49;100855.22;;;6.87;100.00
11710;BME280;5911;51.036;6.972;2022-12-07T01:08:18;100847.63;;;6.83;100.00
11710;BME280;5911;51.036;6.972;2022-12-07T01:10:46;100843.97;;;6.85;100.00
11710;BME280;5911;51.036;6.972;2022-12-07T01:13:14;100847.44;;;6.86;100.00
11710;BME280;5911;51.036;6.972;2022-12-07T01:15:43;100846.97;;;6.79;100.00
11710;BME280;5911;51.036;6.972;2022-12-07T01:18:11;100851.44;;;6.77;100.00
11710;BME280;5911;51.036;6.972;2022-12-07T01:20:39;100848.47;;;6.83;100.00
11710;BME280;5911;51.036;6.972;2022-12-07T01:23:07;100836.13;;;6.71;100.00
11710;BME280;5911;51.036;6.972;2022-12-07T01:25:37;100852.69;;;6.86;100.00
11710;BME280;5911;51.036;6.972;2022-12-07T01:28:04;100852.00;;;6.82;100.00
11710;BME280;5911;51.036;6.972;2022-12-07T01:30:32;100850.16;;;6.84;100.00
11710;BME280;5911;51.036;6.972;2022-12-07T01:33:00;100856.84;;;6.88;100.00
11710;BME280;5911;51.036;6.972;2022-12-07T01:35:28;100855.22;;;6.87;100.00
11710;BME280;5911;51.036;6.972;2022-12-07T01:37:55;100851.84;;;6.85;100.00
11710;BME280;5911;51.036;6.972;2022-12-07T01:40:23;100856.13;;;6.86;100.00
11710;BME280;5911;51.036;6.972;2022-12-07T01:42:52;100837.97;;;6.83;100.00
11710;BME280;5911;51.036;6.972;2022-12-07T01:45:38;100852.69;;;6.86;100.00
11710;BME280;5911;51.036;6.972;2022-12-07T01:48:08;100846.38;;;6.88;100.00
11710;BME280;5911;51.036;6.972;2022-12-07T01:50:38;100842.91;;;6.88;100.00
11710;BME280;5911;51.036;6.972;2022-12-07T01:53:09;100846.78;;;6.82;100.00
11710;BME280;5911;51.036;6.972;2022-12-07T01:55:41;100841.13;;;6.88;100.00
11710;BME280;5911;51.036;6.972;2022-12-07T01:58:12;100843.03;;;6.86;100.00
11710;BME280;5911;51.036;6.972;2022-12-07T02:00:41;100841.25;;;6.87;100.00
11710;BME280;5911;51.036;6.972;2022-12-07T02:03:12;100833.25;;;6.88;100.00
11710;BME280;5911;51.036;6.972;2022-12-07T02:05:43;100823.19;;;6.82;100.00
11710;BME280;5911;51.036;6.972;2022-12-07T02:08:12;100805.50;;;6.72;100.00
11710;BME280;5911;51.036;6.972;2022-12-07T02:10:40;100831.03;;;6.82;100.00
11710;BME280;5911;51.036;6.972;2022-12-07T02:13:11;100837.66;;;6.88;100.00
11710;BME280;5911;51.036;6.972;2022-12-07T02:15:59;100835.25;;;6.85;100.00
11710;BME280;5911;51.036;6.972;2022-12-07T02:18:41;100831.88;;;6.83;100.00
11710;BME280;5911;51.036;6.972;2022-12-07T02:21:15;100831.03;;;6.82;100.00
11710;BME280;5911;51.036;6.972;2022-12-07T02:24:10;100818.59;;;6.86;100.00
11710;BME280;5911;51.036;6.972;2022-12-07T02:29:47;100822.63;;;6.77;100.00
11710;BME280;5911;51.036;6.972;2022-12-07T02:32:21;100828.22;;;6.85;100.00
11710;BME280;5911;51.036;6.972;2022-12-07T02:34:55;100829.69;;;6.89;100.00
11710;BME280;5911;51.036;6.972;2022-12-07T02:37:35;100829.69;;;6.89;100.00
11710;BME280;5911;51.036;6.972;2022-12-07T02:40:07;100832.22;;;6.91;100.00
11710;BME280;5911;51.036;6.972;2022-12-07T02:42:39;100829.25;;;6.83;100.00
11710;BME280;5911;51.036;6.972;2022-12-07T02:45:12;100823.94;;;6.84;100.00
11710;BME280;5911;51.036;6.972;2022-12-07T02:47:41;100813.44;;;6.84;100.00
11710;BME280;5911;51.036;6.972;2022-12-07T02:50:11;100820.56;;;6.82;100.00
11710;BME280;5911;51.036;6.972;2022-12-07T02:52:39;100830.00;;;6.85;100.00
11710;BME280;5911;51.036;6.972;2022-12-07T02:55:08;100818.28;;;6.90;100.00
11710;BME280;5911;51.036;6.972;2022-12-07T02:57:49;100826.38;;;6.87;100.00
11710;BME280;5911;51.036;6.972;2022-12-07T03:00:21;100823.75;;;6.87;100.00
11710;BME280;5911;51.036;6.972;2022-12-07T03:02:57;100820.38;;;6.85;100.00
11710;BME280;5911;51.036;6.972;2022-12-07T03:05:36;100813.63;;;6.81;100.00
11710;BME280;5911;51.036;6.972;2022-12-07T03:08:14;100817.19;;;6.80;100.00
11710;BME280;5911;51.036;6.972;2022-12-07T03:10:50;100821.66;;;6.92;100.00
11710;BME280;5911;51.036;6.972;2022-12-07T03:13:24;100825.63;;;6.85;100.00
11710;BME280;5911;51.036;6.972;2022-12-07T03:16:02;100823.94;;;6.84;100.00
11710;BME280;5911;51.036;6.972;2022-12-07T03:18:33;100821.84;;;6.89;100.00
11710;BME280;5911;51.036;6.972;2022-12-07T03:21:06;100821.59;;;6.80;100.00
11710;BME280;5911;51.036;6.972;2022-12-07T03:23:38;100814.41;;;6.69;100.00
11710;BME280;5911;51.036;6.972;2022-12-07T03:26:10;100813.47;;;6.70;100.00
11710;BME280;5911;51.036;6.972;2022-12-07T03:28:42;100811.59;;;6.72;100.00
11710;BME280;5911;51.036;6.972;2022-12-07T03:31:15;100830.63;;;6.88;100.00
11710;BME280;5911;51.036;6.972;2022-12-07T03:33:49;100816.06;;;6.84;100.00
11710;BME280;5911;51.036;6.972;2022-12-07T03:36:23;100820.81;;;6.92;100.00
11710;BME280;5911;51.036;6.972;2022-12-07T03:38:58;100829.59;;;6.91;100.00
11710;BME280;5911;51.036;6.972;2022-12-07T03:41:30;100821.13;;;6.87;100.00
11710;BME280;5911;51.036;6.972;2022-12-07T03:43:58;100818.50;;;6.87;100.00
11710;BME280;5911;51.036;6.972;2022-12-07T03:46:34;100821.00;;;6.89;100.00
11710;BME280;5911;51.036;6.972;2022-12-07T03:49:08;100827.94;;;6.90;100.00
11710;BME280;5911;51.036;6.972;2022-12-07T03:51:43;100820.81;;;6.92;100.00
11710;BME280;5911;51.036;6.972;2022-12-07T03:54:15;100820.81;;;6.92;100.00
11710;BME280;5911;51.036;6.972;2022-12-07T03:56:47;100821.41;;;6.83;100.00
11710;BME280;5911;51.036;6.972;2022-12-07T03:59:17;100828.69;;;6.92;100.00
11710;BME280;5911;51.036;6.972;2022-12-07T04:01:52;100820.91;;;6.90;100.00
11710;BME280;5911;51.036;6.972;2022-12-07T04:04:20;100825.41;;;6.88;100.00
11710;BME280;5911;51.036;6.972;2022-12-07T04:06:48;100821.66;;;6.92;100.00
11710;BME280;5911;51.036;6.972;2022-12-07T04:09:16;100824.28;;;6.92;100.00
11710;BME280;5911;51.036;6.972;2022-12-07T04:11:44;100826.25;;;6.89;100.00
11710;BME280;5911;51.036;6.972;2022-12-07T04:14:12;100820.06;;;6.90;100.00
11710;BME280;5911;51.036;6.972;2022-12-07T04:16:48;100830.44;;;6.91;100.00
11710;BME280;5911;51.036;6.972;2022-12-07T04:19:18;100831.19;;;6.93;100.00
11710;BME280;5911;51.036;6.972;2022-12-07T04:21:46;100828.50;;;6.95;100.00
11710;BME280;5911;51.036;6.972;2022-12-07T04:24:15;100820.81;;;6.92;100.00
11710;BME280;5911;51.036;6.972;2022-12-07T04:26:44;100814.53;;;6.94;100.00
11710;BME280;5911;51.036;6.972;2022-12-07T04:29:12;100818.84;;;6.95;100.00
11710;BME280;5911;51.036;6.972;2022-12-07T04:31:40;100818.28;;;6.90;100.00
11710;BME280;5911;51.036;6.972;2022-12-07T04:34:10;100817.16;;;6.94;100.00
11710;BME280;5911;51.036;6.972;2022-12-07T04:36:39;100817.91;;;6.96;100.00
11710;BME280;5911;51.036;6.972;2022-12-07T04:39:08;100823.34;;;6.93;100.00
11710;BME280;5911;51.036;6.972;2022-12-07T04:41:36;100820.72;;;6.93;100.00
11710;BME280;5911;51.036;6.972;2022-12-07T04:44:04;100821.66;;;6.92;100.00
11710;BME280;5911;51.036;6.972;2022-12-07T04:46:33;100821.47;;;6.95;100.00
11710;BME280;5911;51.036;6.972;2022-12-07T04:49:01;100823.16;;;6.96;100.00
11710;BME280;5911;51.036;6.972;2022-12-07T04:51:30;100824.00;;;6.97;100.00
11710;BME280;5911;51.036;6.972;2022-12-07T04:53:58;100822.03;;;7.00;100.00
11710;BME280;5911;51.036;6.972;2022-12-07T04:56:26;100822.22;;;6.97;100.00
11710;BME280;5911;51.036;6.972;2022-12-07T04:58:54;100800.84;;;6.89;100.00
11710;BME280;5911;51.036;6.972;2022-12-07T05:01:22;100806.66;;;6.94;100.00
11710;BME280;5911;51.036;6.972;2022-12-07T05:03:50;100810.97;;;6.95;100.00
11710;BME280;5911;51.036;6.972;2022-12-07T05:06:18;100818.09;;;6.93;100.00
11710;BME280;5911;51.036;6.972;2022-12-07T05:08:48;100808.63;;;6.91;100.00
11710;BME280;5911;51.036;6.972;2022-12-07T05:11:16;100809.66;;;6.88;100.00
11710;BME280;5911;51.036;6.972;2022-12-07T05:13:57;100810.63;;;6.87;100.00
11710;BME280;5911;51.036;6.972;2022-12-07T05:16:25;100782.94;;;6.69;100.00
11710;BME280;5911;51.036;6.972;2022-12-07T05:18:53;100810.50;;;6.89;100.00
11710;BME280;5911;51.036;6.972;2022-12-07T05:21:21;100813.25;;;6.87;100.00
11710;BME280;5911;51.036;6.972;2022-12-07T05:23:51;100814.91;;;6.88;100.00
11710;BME280;5911;51.036;6.972;2022-12-07T05:26:19;100822.06;;;6.86;100.00
11710;BME280;5911;51.036;6.972;2022-12-07T05:28:50;100816.81;;;6.86;100.00
11710;BME280;5911;51.036;6.972;2022-12-07T05:31:18;100815.97;;;6.86;100.00
11710;BME280;5911;51.036;6.972;2022-12-07T05:33:46;100824.56;;;6.88;100.00
11710;BME280;5911;51.036;6.972;2022-12-07T05:36:14;100815.13;;;6.85;100.00
11710;BME280;5911;51.036;6.972;2022-12-07T05:38:42;100810.91;;;6.83;100.00
11710;BME280;5911;51.036;6.972;2022-12-07T05:41:14;100814.66;;;6.79;100.00
11710;BME280;5911;51.036;6.972;2022-12-07T05:43:56;100813.81;;;6.78;100.00
11710;BME280;5911;51.036;6.972;2022-12-07T05:46:24;100810.06;;;6.82;100.00
11710;BME280;5911;51.036;6.972;2022-12-07T05:48:52;100818.78;;;6.83;100.00
11710;BME280;5911;51.036;6.972;2022-12-07T05:51:20;100821.41;;;6.83;100.00
11710;BME280;5911;51.036;6.972;2022-12-07T05:53:47;100814.66;;;6.79;100.00
11710;BME280;5911;51.036;6.972;2022-12-07T05:56:17;100810.25;;;6.79;100.00
11710;BME280;5911;51.036;6.972;2022-12-07T05:58:45;100809.41;;;6.79;100.00
11710;BME280;5911;51.036;6.972;2022-12-07T06:01:30;100801.91;;;6.72;100.00
11710;BME280;5911;51.036;6.972;2022-12-07T06:03:58;100813.63;;;6.81;100.00
11710;BME280;5911;51.036;6.972;2022-12-07T06:06:25;100807.28;;;6.71;100.00
11710;BME280;5911;51.036;6.972;2022-12-07T06:08:53;100814.75;;;6.77;100.00
11710;BME280;5911;51.036;6.972;2022-12-07T06:11:22;100813.81;;;6.78;100.00
11710;BME280;5911;51.036;6.972;2022-12-07T06:14:08;100817.47;;;6.76;100.00
11710;BME280;5911;51.036;6.972;2022-12-07T06:16:36;100808.22;;;6.70;100.00
11710;BME280;5911;51.036;6.972;2022-12-07T06:19:03;100811.88;;;6.67;100.00
11710;BME280;5911;51.036;6.972;2022-12-07T06:21:31;100812.91;;;6.65;100.00
11710;BME280;5911;51.036;6.972;2022-12-07T06:23:59;100816.28;;;6.67;100.00
11710;BME280;5911;51.036;6.972;2022-12-07T06:26:28;100810.28;;;6.65;100.00
11710;BME280;5911;51.036;6.972;2022-12-07T06:28:56;100812.81;;;6.66;100.00
11710;BME280;5911;51.036;6.972;2022-12-07T06:31:24;100820.66;;;6.66;100.00
11710;BME280;5911;51.036;6.972;2022-12-07T06:33:57;100826.94;;;6.64;100.00
11710;BME280;5911;51.036;6.972;2022-12-07T06:36:24;100807.41;;;6.55;100.00
11710;BME280;5911;51.036;6.972;2022-12-07T06:38:53;100803.00;;;6.56;100.00
11710;BME280;5911;51.036;6.972;2022-12-07T06:41:21;100827.41;;;6.70;100.00
11710;BME280;5911;51.036;6.972;2022-12-07T06:43:50;100829.81;;;6.74;100.00
11710;BME280;5911;51.036;6.972;2022-12-07T06:46:22;100830.66;;;6.74;100.00
11710;BME280;5911;51.036;6.972;2022-12-07T06:48:50;100832.44;;;6.74;100.00
11710;BME280;5911;51.036;6.972;2022-12-07T06:51:18;100829.94;;;6.72;100.00
11710;BME280;5911;51.036;6.972;2022-12-07T06:53:45;100818.81;;;6.68;100.00
11710;BME280;5911;51.036;6.972;2022-12-07T06:56:13;100820.56;;;6.68;100.00
11710;BME280;5911;51.036;6.972;2022-12-07T06:58:41;100814.88;;;6.61;100.00
11710;BME280;5911;51.036;6.972;2022-12-07T07:01:12;100825.44;;;6.60;100.00
11710;BME280;5911;51.036;6.972;2022-12-07T07:03:40;100810.13;;;6.54;100.00
11710;BME280;5911;51.036;6.972;2022-12-07T07:06:08;100827.88;;;6.63;100.00
11710;BME280;5911;51.036;6.972;2022-12-07T07:08:37;100833.88;;;6.65;100.00
11710;BME280;5911;51.036;6.972;2022-12-07T07:11:06;100826.94;;;6.64;100.00
11710;BME280;5911;51.036;6.972;2022-12-07T07:13:34;100808.34;;;6.54;100.00
11710;BME280;5911;51.036;6.972;2022-12-07T07:16:02;100828.72;;;6.63;100.00
11710;BME280;5911;51.036;6.972;2022-12-07T07:18:31;100840.78;;;6.66;100.00
11710;BME280;5911;51.036;6.972;2022-12-07T07:20:59;100840.63;;;6.69;100.00
11710;BME280;5911;51.036;6.972;2022-12-07T07:23:27;100830.13;;;6.69;100.00
11710;BME280;5911;51.036;6.972;2022-12-07T07:25:55;100837.25;;;6.67;100.00
11710;BME280;5911;51.036;6.972;2022-12-07T07:28:23;100828.44;;;6.68;100.00
11710;BME280;5911;51.036;6.972;2022-12-07T07:30:51;100835.56;;;6.66;100.00
11710;BME280;5911;51.036;6.972;2022-12-07T07:33:19;100831.81;;;6.70;100.00
11710;BME280;5911;51.036;6.972;2022-12-07T07:35:48;100831.91;;;6.68;100.00
11710;BME280;5911;51.036;6.972;2022-12-07T07:38:16;100838.00;;;6.69;100.00
11710;BME280;5911;51.036;6.972;2022-12-07T07:40:43;100828.34;;;6.69;100.00
11710;BME280;5911;51.036;6.972;2022-12-07T07:43:11;100824.88;;;6.69;100.00
11710;BME280;5911;51.036;6.972;2022-12-07T07:45:39;100831.91;;;6.68;100.00
11710;BME280;5911;51.036;6.972;2022-12-07T07:48:07;100818.50;;;6.59;100.00
11710;BME280;5911;51.036;6.972;2022-12-07T07:50:35;100839.78;;;6.68;100.00
11710;BME280;5911;51.036;6.972;2022-12-07T07:53:04;100835.38;;;6.69;100.00
11710;BME280;5911;51.036;6.972;2022-12-07T07:55:31;100836.97;;;6.72;100.00
11710;BME280;5911;51.036;6.972;2022-12-07T07:57:59;100829.38;;;6.67;100.00
11710;BME280;5911;51.036;6.972;2022-12-07T08:00:27;100842.84;;;6.75;100.00
11710;BME280;5911;51.036;6.972;2022-12-07T08:02:55;100844.53;;;6.76;100.00
11710;BME280;5911;51.036;6.972;2022-12-07T08:05:22;100846.38;;;6.74;100.00
11710;BME280;5911;51.036;6.972;2022-12-07T08:07:50;100846.22;;;6.77;100.00
11710;BME280;5911;51.036;6.972;2022-12-07T08:10:19;100847.06;;;6.78;100.00
11710;BME280;5911;51.036;6.972;2022-12-07T08:12:47;100847.81;;;6.80;100.00
11710;BME280;5911;51.036;6.972;2022-12-07T08:15:32;100844.81;;;6.72;100.00
11710;BME280;5911;51.036;6.972;2022-12-07T08:18:00;100849.00;;;6.74;100.00
11710;BME280;5911;51.036;6.972;2022-12-07T08:20:30;100852.56;;;6.73;100.00
11710;BME280;5911;51.036;6.972;2022-12-07T08:22:58;100861.19;;;6.75;100.00
11710;BME280;5911;51.036;6.972;2022-12-07T08:25:27;100859.50;;;6.74;100.00
11710;BME280;5911;51.036;6.972;2022-12-07T08:27:55;100860.66;;;6.70;100.00
11710;BME280;5911;51.036;6.972;2022-12-07T08:30:23;100859.72;;;6.71;100.00
11710;BME280;5911;51.036;6.972;2022-12-07T08:32:51;100859.50;;;6.74;100.00
11710;BME280;5911;51.036;6.972;2022-12-07T08:35:19;100848.81;;;6.77;100.00
11710;BME280;5911;51.036;6.972;2022-12-07T08:37:47;100861.00;;;6.78;100.00
11710;BME280;5911;51.036;6.972;2022-12-07T08:40:15;100861.75;;;6.80;100.00
11710;BME280;5911;51.036;6.972;2022-12-07T08:42:49;100873.56;;;6.87;100.00
11710;BME280;5911;51.036;6.972;2022-12-07T08:45:18;100867.25;;;6.90;100.00
11710;BME280;5911;51.036;6.972;2022-12-07T08:47:55;100866.41;;;6.89;100.00
11710;BME280;5911;51.036;6.972;2022-12-07T08:50:24;100868.50;;;6.84;100.00
11710;BME280;5911;51.036;6.972;2022-12-07T08:52:55;100855.59;;;6.67;100.00
11710;BME280;5911;51.036;6.972;2022-12-07T08:55:24;100871.97;;;6.85;100.00
11710;BME280;5911;51.036;6.972;2022-12-07T08:57:54;100869.25;;;6.86;100.00
11710;BME280;5911;51.036;6.972;2022-12-07T09:00:22;100868.00;;;6.92;100.00
11710;BME280;5911;51.036;6.972;2022-12-07T09:02:50;100868.66;;;6.95;100.00
11710;BME280;5911;51.036;6.972;2022-12-07T09:05:18;100858.00;;;6.98;100.00
11710;BME280;5911;51.036;6.972;2022-12-07T09:07:49;100863.22;;;6.98;100.00
11710;BME280;5911;51.036;6.972;2022-12-07T09:10:18;100858.84;;;6.99;100.00
11710;BME280;5911;51.036;6.972;2022-12-07T09:12:46;100858.09;;;6.97;100.00
11710;BME280;5911;51.036;6.972;2022-12-07T09:15:15;100858.84;;;6.99;100.00
11710;BME280;5911;51.036;6.972;2022-12-07T09:17:43;100861.16;;;7.03;100.00
11710;BME280;5911;51.036;6.972;2022-12-07T09:20:11;100858.00;;;6.98;100.00
11710;BME280;5911;51.036;6.972;2022-12-07T09:22:39;100858.84;;;6.99;100.00
11710;BME280;5911;51.036;6.972;2022-12-07T09:25:07;100859.13;;;6.94;100.00
11710;BME280;5911;51.036;6.972;2022-12-07T09:27:35;100857.34;;;6.95;100.00
11710;BME280;5911;51.036;6.972;2022-12-07T09:30:03;100863.22;;;6.98;100.00
11710;BME280;5911;51.036;6.972;2022-12-07T09:32:33;100863.41;;;6.95;100.00
11710;BME280;5911;51.036;6.972;2022-12-07T09:35:01;100868.66;;;6.95;100.00
11710;BME280;5911;51.036;6.972;2022-12-07T09:37:29;100867.72;;;6.96;100.00
11710;BME280;5911;51.036;6.972;2022-12-07T09:39:58;100857.16;;;6.98;100.00
11710;BME280;5911;51.036;6.972;2022-12-07T09:42:28;100850.50;;;6.92;100.00
11710;BME280;5911;51.036;6.972;2022-12-07T09:44:58;100866.19;;;7.06;100.00
11710;BME280;5911;51.036;6.972;2022-12-07T09:47:27;100866.38;;;7.03;100.00
11710;BME280;5911;51.036;6.972;2022-12-07T09:50:00;100867.31;;;7.17;100.00
11710;BME280;5911;51.036;6.972;2022-12-07T09:52:31;100862.06;;;7.17;100.00
11710;BME280;5911;51.036;6.972;2022-12-07T09:55:10;100853.28;;;7.18;100.00
11710;BME280;5911;51.036;6.972;2022-12-07T09:57:39;100845.22;;;7.06;100.00
11710;BME280;5911;51.036;6.972;2022-12-07T10:00:12;100854.84;;;7.20;100.00
11710;BME280;5911;51.036;6.972;2022-12-07T10:02:43;100854.63;;;7.23;100.00
11710;BME280;5911;51.036;6.972;2022-12-07T10:05:16;100857.91;;;7.27;100.00
11710;BME280;5911;51.036;6.972;2022-12-07T10:07:50;100850.34;;;7.22;100.00
11710;BME280;5911;51.036;6.972;2022-12-07T10:10:22;100845.56;;;7.29;100.00
11710;BME280;5911;51.036;6.972;2022-12-07T10:12:57;100850.44;;;7.21;100.00
11710;BME280;5911;51.036;6.972;2022-12-07T10:15:44;100844.50;;;7.31;100.00
11710;BME280;5911;51.036;6.972;2022-12-07T10:18:18;100843.44;;;7.34;100.00
11710;BME280;5911;51.036;6.972;2022-12-07T10:20:48;100843.44;;;7.34;100.00
11710;BME280;5911;51.036;6.972;2022-12-07T10:23:17;100842.00;;;7.30;100.00
11710;BME280;5911;51.036;6.972;2022-12-07T10:25:45;100828.13;;;7.28;100.00
11710;BME280;5911;51.036;6.972;2022-12-07T10:28:16;100838.19;;;7.34;100.00
11710;BME280;5911;51.036;6.972;2022-12-07T10:30:54;100836.31;;;7.36;100.00
11710;BME280;5911;51.036;6.972;2022-12-07T10:33:34;100831.91;;;7.36;100.00
11710;BME280;5911;51.036;6.972;2022-12-07T10:36:19;100834.25;;;7.41;100.00
11710;BME280;5911;51.036;6.972;2022-12-07T10:38:49;100823.66;;;7.43;100.00
11710;BME280;5911;51.036;6.972;2022-12-07T10:41:17;100826.00;;;7.47;100.00
11710;BME280;5911;51.036;6.972;2022-12-07T10:43:53;100815.13;;;7.39;100.00
11710;BME280;5911;51.036;6.972;2022-12-07T10:46:45;100823.38;;;7.47;100.00
11710;BME280;5911;51.036;6.972;2022-12-07T10:49:42;100818.97;;;7.48;100.00
11710;BME280;5911;51.036;6.972;2022-12-07T10:52:25;100817.91;;;7.50;100.00
11710;BME280;5911;51.036;6.972;2022-12-07T10:55:08;100812.88;;;7.47;100.00
11710;BME280;5911;51.036;6.972;2022-12-07T10:57:48;100816.22;;;7.49;100.00
11710;BME280;5911;51.036;6.972;2022-12-07T11:00:21;100808.47;;;7.48;100.00
11710;BME280;5911;51.036;6.972;2022-12-07T11:03:14;100801.53;;;7.47;100.00
11710;BME280;5911;51.036;6.972;2022-12-07T11:05:52;100797.63;;;7.39;100.00
11710;BME280;5911;51.036;6.972;2022-12-07T11:08:38;100796.28;;;7.47;100.00
11710;BME280;5911;51.036;6.972;2022-12-07T11:11:09;100792.59;;;7.49;100.00
11710;BME280;5911;51.036;6.972;2022-12-07T11:13:44;100791.34;;;7.55;100.00
11710;BME280;5911;51.036;6.972;2022-12-07T11:16:24;100794.72;;;7.57;100.00
11710;BME280;5911;51.036;6.972;2022-12-07T11:19:25;100793.56;;;7.48;100.00
11710;BME280;5911;51.036;6.972;2022-12-07T11:21:58;100791.25;;;7.56;100.00
11710;BME280;5911;51.036;6.972;2022-12-07T11:24:32;100782.44;;;7.57;100.00
11710;BME280;5911;51.036;6.972;2022-12-07T11:27:10;100782.44;;;7.57;100.00
11710;BME280;5911;51.036;6.972;2022-12-07T11:29:59;100778.31;;;7.53;100.00
11710;BME280;5911;51.036;6.972;2022-12-07T11:32:45;100768.97;;;7.49;100.00
11710;BME280;5911;51.036;6.972;2022-12-07T11:35:24;100760.69;;;7.55;100.00
11710;BME280;5911;51.036;6.972;2022-12-07T11:38:01;100766.25;;;7.51;100.00
11710;BME280;5911;51.036;6.972;2022-12-07T11:40:36;100765.00;;;7.56;100.00
11710;BME280;5911;51.036;6.972;2022-12-07T11:43:13;100763.31;;;7.55;100.00
11710;BME280;5911;51.036;6.972;2022-12-07T11:45:47;100759.47;;;7.73;100.00
11710;BME280;5911;51.036;6.972;2022-12-07T11:48:22;100765.03;;;7.82;100.00
11710;BME280;5911;51.036;6.972;2022-12-07T11:50:57;100752.34;;;7.88;100.00
11710;BME280;5911;51.036;6.972;2022-12-07T11:53:32;100759.69;;;7.96;100.00
11710;BME280;5911;51.036;6.972;2022-12-07T11:56:07;100753.72;;;7.94;100.00
11710;BME280;5911;51.036;6.972;2022-12-07T11:58:42;100758.84;;;7.83;100.00
11710;BME280;5911;51.036;6.972;2022-12-07T12:01:35;100752.63;;;7.84;100.00
11710;BME280;5911;51.036;6.972;2022-12-07T12:04:17;100754.13;;;7.88;100.00
11710;BME280;5911;51.036;6.972;2022-12-07T12:06:50;100754.31;;;7.85;100.00
11710;BME280;5911;51.036;6.972;2022-12-07T12:09:24;100750.84;;;7.97;100.00
11710;BME280;5911;51.036;6.972;2022-12-07T12:12:24;100746.34;;;8.11;100.00
11710;BME280;5911;51.036;6.972;2022-12-07T12:15:29;100737.50;;;8.12;100.00
11710;BME280;5911;51.036;6.972;2022-12-07T12:18:14;100748.47;;;8.06;100.00
11710;BME280;5911;51.036;6.972;2022-12-07T12:20:48;100739.63;;;8.07;100.00
11710;BME280;5911;51.036;6.972;2022-12-07T12:23:20;100752.88;;;8.06;100.00
11710;BME280;5911;51.036;6.972;2022-12-07T12:25:52;100738.78;;;8.07;100.00
11710;BME280;5911;51.036;6.972;2022-12-07T12:28:26;100740.44;;;7.95;100.00
11710;BME280;5911;51.036;6.972;2022-12-07T12:31:06;100736.19;;;7.94;100.00
11710;BME280;5911;51.036;6.972;2022-12-07T12:33:35;100724.50;;;7.98;100.00
11710;BME280;5911;51.036;6.972;2022-12-07T12:36:19;100731.75;;;8.07;100.00
11710;BME280;5911;51.036;6.972;2022-12-07T12:38:49;100729.13;;;8.07;100.00
11710;BME280;5911;51.036;6.972;2022-12-07T12:44:42;100726.28;;;7.98;100.00
11710;BME280;5911;51.036;6.972;2022-12-07T12:47:42;100729.53;;;8.01;100.00
11710;BME280;5911;51.036;6.972;2022-12-07T12:50:21;100724.28;;;8.01;100.00
11710;BME280;5911;51.036;6.972;2022-12-07T12:53:12;100717.88;;;8.05;100.00
11710;BME280;5911;51.036;6.972;2022-12-07T12:58:47;100719.47;;;8.08;100.00
11710;BME280;5911;51.036;6.972;2022-12-07T13:01:40;100709.78;;;8.08;100.00
11710;BME280;5911;51.036;6.972;2022-12-07T13:04:24;100708.59;;;8.12;100.00
11710;BME280;5911;51.036;6.972;2022-12-07T13:06:53;100705.88;;;8.14;100.00
11710;BME280;5911;51.036;6.972;2022-12-07T13:09:24;100710.28;;;8.13;100.00
11710;BME280;5911;51.036;6.972;2022-12-07T13:12:00;100703.31;;;8.25;100.00
11710;BME280;5911;51.036;6.972;2022-12-07T13:14:56;100708.94;;;8.33;100.00
11710;BME280;5911;51.036;6.972;2022-12-07T13:18:14;100703.78;;;8.32;100.00
11710;BME280;5911;51.036;6.972;2022-12-07T13:20:52;100710.72;;;8.20;100.00
11710;BME280;5911;51.036;6.972;2022-12-07T13:23:24;100711.88;;;8.16;100.00
11710;BME280;5911;51.036;6.972;2022-12-07T13:26:05;100705.59;;;8.06;100.00
11710;BME280;5911;51.036;6.972;2022-12-07T13:28:44;100693.81;;;7.99;100.00
11710;BME280;5911;51.036;6.972;2022-12-07T13:31:19;100692.97;;;7.86;100.00
11710;BME280;5911;51.036;6.972;2022-12-07T13:33:48;100687.53;;;7.89;100.00
11710;BME280;5911;51.036;6.972;2022-12-07T13:36:20;100677.88;;;7.76;100.00